Drayton, South Carolina
Current Conditions -  °F | °C
As of 9:35 PM on Thursday 20 Nov 2014 (Local Time) from KSPA Reporting Station
Clear Clear  
Wind Chill: 44°   Ceiling: Unl
Heat Index: 46°   Visibility: 10mi
Dew Point: 28°   Wind: 5mph
Humidity: 50%   Direction: 250°WSW
Pressure: 30.16"   Gusts: NA
Location:  34.96°N, 81.9°W
Report Text: KSPA 210235Z AUTO 25004KT 10SM CLR 08/M02 A3016 RMK AO2
Loading
Personal Weather Stations






























Interactive Weather Map New forecast layout! Learn more

10-Day Weather Forecast

Advertisements
Track Severe Weather on mobile